createdAt,value
2022-12-11T00:01:40.607Z,5.00
2022-12-11T00:04:07.285Z,4.27
2022-12-11T00:06:33.952Z,3.90
2022-12-11T00:09:01.007Z,4.13
2022-12-11T00:11:29.923Z,4.20
2022-12-11T00:13:58.758Z,4.20
2022-12-11T00:16:27.078Z,4.00
2022-12-11T00:18:54.727Z,4.13
2022-12-11T00:21:21.397Z,3.97
2022-12-11T00:23:50.235Z,3.93
2022-12-11T00:26:19.711Z,3.80
2022-12-11T00:28:46.626Z,4.10
2022-12-11T00:31:17.072Z,4.23
2022-12-11T00:33:45.388Z,4.43
2022-12-11T00:36:16.655Z,3.70
2022-12-11T00:38:46.205Z,3.73
2022-12-11T00:41:15.685Z,3.87
2022-12-11T00:43:42.454Z,3.70
2022-12-11T00:46:10.149Z,3.30
2022-12-11T00:48:39.368Z,3.50
2022-12-11T00:51:06.829Z,3.67
2022-12-11T00:53:33.692Z,3.67
2022-12-11T00:56:00.354Z,3.07
2022-12-11T00:58:31.589Z,5.23
2022-12-11T01:01:09.659Z,3.00
2022-12-11T01:03:39.025Z,3.40
2022-12-11T01:06:06.660Z,3.23
2022-12-11T01:08:38.269Z,3.77
2022-12-11T01:11:11.005Z,4.10
2022-12-11T01:13:38.967Z,3.50
2022-12-11T01:16:14.577Z,3.53
2022-12-11T01:18:41.611Z,3.40
2022-12-11T01:21:09.981Z,3.70
2022-12-11T01:23:37.166Z,4.03
2022-12-11T01:26:12.702Z,3.72
2022-12-11T01:28:42.195Z,4.03
2022-12-11T01:31:14.112Z,3.80
2022-12-11T01:33:43.264Z,4.37
2022-12-11T01:36:13.990Z,3.90
2022-12-11T01:38:40.920Z,4.00
2022-12-11T01:41:08.140Z,4.20
2022-12-11T01:44:26.869Z,3.77
2022-12-11T01:46:54.157Z,4.60
2022-12-11T01:49:27.242Z,4.63
2022-12-11T01:52:07.776Z,4.13
2022-12-11T01:54:35.253Z,4.00
2022-12-11T01:57:08.071Z,3.83
2022-12-11T01:59:38.719Z,4.50
2022-12-11T02:02:22.988Z,4.27
2022-12-11T02:04:49.822Z,4.23
2022-12-11T02:07:20.963Z,5.03
2022-12-11T02:09:48.466Z,4.53
2022-12-11T02:12:43.453Z,4.07
2022-12-11T02:15:27.409Z,4.97
2022-12-11T02:18:09.474Z,4.83
2022-12-11T02:20:54.212Z,5.00
2022-12-11T02:23:29.198Z,5.23
2022-12-11T02:26:13.851Z,4.67
2022-12-11T02:28:52.308Z,3.93
2022-12-11T02:31:32.790Z,5.10
2022-12-11T02:34:18.126Z,5.00
2022-12-11T02:36:52.608Z,4.23
2022-12-11T02:39:22.428Z,4.57
2022-12-11T02:41:52.018Z,4.10
2022-12-11T02:44:29.631Z,4.57
2022-12-11T02:46:57.918Z,4.90
2022-12-11T02:49:26.667Z,4.70
2022-12-11T02:51:56.293Z,4.30
2022-12-11T02:54:31.343Z,5.53
2022-12-11T02:57:05.123Z,4.87
2022-12-11T02:59:41.465Z,5.00
2022-12-11T03:02:10.685Z,4.53
2022-12-11T03:04:37.921Z,4.57
2022-12-11T03:07:14.910Z,5.30
2022-12-11T03:09:47.312Z,4.63
2022-12-11T03:12:36.861Z,5.53
2022-12-11T03:15:06.917Z,5.00
2022-12-11T03:17:57.158Z,4.97
2022-12-11T03:20:48.993Z,5.30
2022-12-11T03:23:31.735Z,5.77
2022-12-11T03:26:21.325Z,5.70
2022-12-11T03:29:10.919Z,6.00
2022-12-11T03:31:50.004Z,5.27
2022-12-11T03:34:24.650Z,6.03
2022-12-11T03:36:53.584Z,6.70
2022-12-11T03:39:27.474Z,7.03
2022-12-11T03:41:57.186Z,7.50
2022-12-11T03:44:27.000Z,6.53
2022-12-11T03:46:56.935Z,7.07
2022-12-11T03:49:28.440Z,7.50
2022-12-11T03:52:01.907Z,6.37
2022-12-11T03:54:31.968Z,6.97
2022-12-11T03:57:04.057Z,7.60
2022-12-11T03:59:30.843Z,7.37
2022-12-11T04:01:57.711Z,8.87
2022-12-11T04:04:24.803Z,7.27
2022-12-11T04:06:51.679Z,7.70
2022-12-11T04:09:18.471Z,7.80
2022-12-11T04:11:48.414Z,7.87
2022-12-11T04:14:33.940Z,8.17
2022-12-11T04:17:01.404Z,7.40
2022-12-11T04:19:46.739Z,7.50
2022-12-11T04:22:34.774Z,8.13
2022-12-11T04:25:02.510Z,7.20
2022-12-11T04:27:52.989Z,7.67
2022-12-11T04:30:29.298Z,8.97
2022-12-11T04:32:59.140Z,7.93
2022-12-11T04:35:30.698Z,7.67
2022-12-11T04:37:59.856Z,8.37
2022-12-11T04:40:29.173Z,7.27
2022-12-11T04:42:56.057Z,8.93
2022-12-11T04:45:27.166Z,8.80
2022-12-11T04:47:53.836Z,7.33
2022-12-11T04:50:20.599Z,9.33
2022-12-11T04:52:47.307Z,8.63
2022-12-11T04:55:16.415Z,8.27
2022-12-11T04:57:45.206Z,8.50
2022-12-11T05:00:12.926Z,8.63
2022-12-11T05:02:41.221Z,9.07
2022-12-11T05:05:13.348Z,7.97
2022-12-11T05:07:42.974Z,8.57
2022-12-11T05:10:10.216Z,7.17
2022-12-11T05:12:37.080Z,7.00
2022-12-11T05:15:06.670Z,8.37
2022-12-11T05:17:33.943Z,8.70
2022-12-11T05:20:00.592Z,8.47
2022-12-11T05:22:27.279Z,7.47
2022-12-11T05:24:56.547Z,7.43
2022-12-11T05:27:23.249Z,8.33
2022-12-11T05:29:51.658Z,7.60
2022-12-11T05:32:20.415Z,7.00
2022-12-11T05:34:49.273Z,6.93
2022-12-11T05:37:18.461Z,7.10
2022-12-11T05:39:45.266Z,6.40
2022-12-11T05:42:11.975Z,7.50
2022-12-11T05:44:38.642Z,7.30
2022-12-11T05:47:07.977Z,5.83
2022-12-11T05:49:34.971Z,6.67
2022-12-11T05:52:01.683Z,6.50
2022-12-11T05:54:30.728Z,7.10
2022-12-11T05:56:57.458Z,7.37
2022-12-11T05:59:27.032Z,6.97
2022-12-11T06:01:56.327Z,6.60
2022-12-11T06:04:23.255Z,6.77
2022-12-11T06:06:49.920Z,6.17
2022-12-11T06:09:17.380Z,7.20
2022-12-11T06:11:46.179Z,7.30
2022-12-11T06:14:13.835Z,6.23
2022-12-11T06:16:43.015Z,7.03
2022-12-11T06:19:18.372Z,7.37
2022-12-11T06:21:46.543Z,5.73
2022-12-11T06:24:13.246Z,5.90
2022-12-11T06:26:39.938Z,6.87
2022-12-11T06:29:11.011Z,6.30
2022-12-11T06:31:39.684Z,5.87
2022-12-11T06:34:06.585Z,6.13
2022-12-11T06:36:33.307Z,5.30
2022-12-11T06:38:59.966Z,7.67
2022-12-11T06:41:26.742Z,6.13
2022-12-11T06:43:53.384Z,5.20
2022-12-11T06:46:20.489Z,5.60
2022-12-11T06:48:48.287Z,6.60
2022-12-11T06:51:19.766Z,5.80
2022-12-11T06:53:54.658Z,5.70
2022-12-11T06:56:22.413Z,5.27
2022-12-11T06:58:49.763Z,6.43
2022-12-11T07:01:27.740Z,6.73
2022-12-11T07:03:56.142Z,7.57
2022-12-11T07:06:23.229Z,6.60
2022-12-11T07:08:52.466Z,7.63
2022-12-11T07:11:20.530Z,6.20
2022-12-11T07:13:47.627Z,5.70
2022-12-11T07:16:16.078Z,7.07
2022-12-11T07:18:48.955Z,7.27
2022-12-11T07:21:15.835Z,6.57
2022-12-11T07:23:42.965Z,6.43
2022-12-11T07:26:12.985Z,6.60
2022-12-11T07:28:39.733Z,5.83
2022-12-11T07:31:25.787Z,5.67
2022-12-11T07:33:56.772Z,5.40
2022-12-11T07:36:24.490Z,6.27
2022-12-11T07:38:56.721Z,5.80
2022-12-11T07:41:24.097Z,6.10
2022-12-11T07:43:51.035Z,5.57
2022-12-11T07:46:21.248Z,6.43
2022-12-11T07:48:48.964Z,6.07
2022-12-11T07:51:18.254Z,5.57
2022-12-11T07:53:47.147Z,6.53
2022-12-11T07:56:15.699Z,7.22
2022-12-11T07:58:42.706Z,5.50
2022-12-11T08:01:15.882Z,5.37
2022-12-11T08:03:43.408Z,5.87
2022-12-11T08:06:11.098Z,6.83
2022-12-11T08:08:38.596Z,5.77
2022-12-11T08:11:07.135Z,6.33
2022-12-11T08:13:34.771Z,6.10
2022-12-11T08:16:10.739Z,5.97
2022-12-11T08:18:38.001Z,6.33
2022-12-11T08:21:16.011Z,5.90
2022-12-11T08:23:45.387Z,6.13
2022-12-11T08:26:18.001Z,7.43
2022-12-11T08:28:44.802Z,8.90
2022-12-11T08:31:13.571Z,10.00
2022-12-11T08:33:41.877Z,11.70
2022-12-11T08:36:11.660Z,9.27
2022-12-11T08:38:38.939Z,9.03
2022-12-11T08:41:16.184Z,8.80
2022-12-11T08:43:43.259Z,9.43
2022-12-11T08:46:10.863Z,11.90
2022-12-11T08:48:39.494Z,10.67
2022-12-11T08:51:09.326Z,10.00
2022-12-11T08:53:39.564Z,10.43
2022-12-11T08:56:18.175Z,11.60
2022-12-11T08:58:48.015Z,12.37
2022-12-11T09:01:27.739Z,10.90
2022-12-11T09:03:56.726Z,12.47
2022-12-11T09:06:25.997Z,12.40
2022-12-11T09:08:53.684Z,12.43
2022-12-11T09:11:25.735Z,13.03
2022-12-11T09:13:53.651Z,12.67
2022-12-11T09:16:27.470Z,10.03
2022-12-11T09:19:01.205Z,10.87
2022-12-11T09:21:45.192Z,6.80
2022-12-11T09:24:12.748Z,8.13
2022-12-11T09:26:42.417Z,12.13
2022-12-11T09:29:10.550Z,9.17
2022-12-11T09:31:37.586Z,10.43
2022-12-11T09:34:08.409Z,8.67
2022-12-11T09:36:42.076Z,9.30
2022-12-11T09:39:11.186Z,9.37
2022-12-11T09:41:41.678Z,9.00
2022-12-11T09:44:13.524Z,9.03
2022-12-11T09:46:41.383Z,11.23
2022-12-11T09:49:17.551Z,11.60
2022-12-11T09:51:51.489Z,8.73
2022-12-11T09:54:18.281Z,14.13
2022-12-11T09:57:02.594Z,9.37
2022-12-11T09:59:52.536Z,10.67
2022-12-11T10:02:48.811Z,10.77
2022-12-11T10:05:28.909Z,10.77
2022-12-11T10:08:30.554Z,11.47
2022-12-11T10:11:06.220Z,12.40
2022-12-11T10:13:49.437Z,11.83
2022-12-11T10:16:39.207Z,8.07
2022-12-11T10:19:10.208Z,11.57
2022-12-11T10:21:44.258Z,10.50
2022-12-11T10:25:09.920Z,9.93
2022-12-11T10:27:33.877Z,10.57
2022-12-11T10:30:20.366Z,11.80
2022-12-11T10:32:55.790Z,11.20
2022-12-11T10:35:39.107Z,11.33
2022-12-11T10:38:27.451Z,11.13
2022-12-11T10:41:11.495Z,10.75
2022-12-11T10:43:49.699Z,10.07
2022-12-11T10:46:25.331Z,8.23
2022-12-11T10:48:55.911Z,9.53
2022-12-11T10:51:25.942Z,9.83
2022-12-11T10:54:07.066Z,10.33
2022-12-11T10:56:37.737Z,11.87
2022-12-11T10:59:05.277Z,9.47
2022-12-11T11:01:33.018Z,9.77
2022-12-11T11:04:38.646Z,8.17
2022-12-11T11:07:34.436Z,9.63
2022-12-11T11:10:16.951Z,8.47
2022-12-11T11:12:50.592Z,9.53
2022-12-11T11:15:27.009Z,8.93
2022-12-11T11:17:56.300Z,10.73
2022-12-11T11:20:29.142Z,9.53
2022-12-11T11:23:17.643Z,11.17
2022-12-11T11:26:06.284Z,9.53
2022-12-11T11:28:54.545Z,10.97
2022-12-11T11:31:33.333Z,9.37
2022-12-11T11:34:07.786Z,10.37
2022-12-11T11:36:37.509Z,9.63
2022-12-11T11:39:09.442Z,10.23
2022-12-11T11:41:53.711Z,9.40
2022-12-11T11:44:29.843Z,10.43
2022-12-11T11:47:05.358Z,10.70
2022-12-11T11:49:36.037Z,10.07
2022-12-11T11:52:41.169Z,11.70
2022-12-11T11:55:20.259Z,9.47
2022-12-11T11:57:55.739Z,10.17
2022-12-11T12:00:23.819Z,11.50
2022-12-11T12:02:56.286Z,10.40
2022-12-11T12:05:35.069Z,10.67
2022-12-11T12:08:43.075Z,11.17
2022-12-11T12:11:23.440Z,10.10
2022-12-11T12:14:51.179Z,12.00
2022-12-11T12:17:39.635Z,13.83
2022-12-11T12:20:29.642Z,9.10
2022-12-11T12:23:35.003Z,12.70
2022-12-11T12:26:08.835Z,19.77
2022-12-11T12:28:59.062Z,10.73
2022-12-11T12:31:50.444Z,9.47
2022-12-11T12:34:29.119Z,13.87
2022-12-11T12:37:00.236Z,14.07
2022-12-11T12:39:38.919Z,9.90
2022-12-11T12:42:20.458Z,14.60
2022-12-11T12:44:49.257Z,8.07
2022-12-11T12:47:20.506Z,10.57
2022-12-11T12:49:52.278Z,10.53
2022-12-11T12:52:36.911Z,10.95
2022-12-11T12:55:18.849Z,9.67
2022-12-11T12:57:49.907Z,9.47
2022-12-11T13:01:05.911Z,11.40
2022-12-11T13:03:56.156Z,11.20
2022-12-11T13:06:44.133Z,11.97
2022-12-11T13:09:18.581Z,9.60
2022-12-11T13:11:47.432Z,10.93
2022-12-11T13:14:16.174Z,9.37
2022-12-11T13:16:49.957Z,9.10
2022-12-11T13:19:25.756Z,9.63
2022-12-11T13:22:13.147Z,9.07
2022-12-11T13:24:57.216Z,11.83
2022-12-11T13:27:27.141Z,8.67
2022-12-11T13:30:14.523Z,11.03
2022-12-11T13:32:43.405Z,9.90
2022-12-11T13:35:17.612Z,8.57
2022-12-11T13:37:48.406Z,8.63
2022-12-11T13:40:25.559Z,9.53
2022-12-11T13:42:54.497Z,9.17
2022-12-11T13:45:29.461Z,6.43
2022-12-11T13:48:00.135Z,10.57
2022-12-11T13:50:34.365Z,7.63
2022-12-11T13:53:03.419Z,9.50
2022-12-11T13:55:33.316Z,9.67
2022-12-11T13:58:03.358Z,8.33
2022-12-11T14:00:35.079Z,8.53
2022-12-11T14:03:08.512Z,12.70
2022-12-11T14:05:35.592Z,10.43
2022-12-11T14:08:10.278Z,8.32
2022-12-11T14:10:38.158Z,8.37
2022-12-11T14:13:19.428Z,7.93
2022-12-11T14:15:49.594Z,9.93
2022-12-11T14:18:28.626Z,9.57
2022-12-11T14:20:57.327Z,9.70
2022-12-11T14:23:29.851Z,12.13
2022-12-11T14:26:00.155Z,10.53
2022-12-11T14:28:30.550Z,10.87
2022-12-11T14:31:00.664Z,11.13
2022-12-11T14:33:42.234Z,11.20
2022-12-11T14:36:09.802Z,11.30
2022-12-11T14:38:43.186Z,9.87
2022-12-11T14:41:33.375Z,12.50
2022-12-11T14:44:04.102Z,10.93
2022-12-11T14:46:43.769Z,10.75
2022-12-11T14:49:42.493Z,10.17
2022-12-11T14:52:21.052Z,9.93
2022-12-11T14:54:57.268Z,10.17
2022-12-11T14:57:29.087Z,10.73
2022-12-11T14:59:57.142Z,11.40
2022-12-11T15:02:30.612Z,10.00
2022-12-11T15:05:00.375Z,10.93
2022-12-11T15:07:29.221Z,12.57
2022-12-11T15:09:55.873Z,12.00
2022-12-11T15:12:22.700Z,12.67
2022-12-11T15:14:54.320Z,11.07
2022-12-11T15:17:22.828Z,12.53
2022-12-11T15:19:55.823Z,13.97
2022-12-11T15:22:26.907Z,12.97
2022-12-11T15:24:55.941Z,12.80
2022-12-11T15:27:36.767Z,15.10
2022-12-11T15:30:27.086Z,14.17
2022-12-11T15:33:08.898Z,11.63
2022-12-11T15:35:36.769Z,10.70
2022-12-11T15:38:06.254Z,13.83
2022-12-11T15:40:33.232Z,11.27
2022-12-11T15:43:04.751Z,13.50
2022-12-11T15:45:31.422Z,12.43
2022-12-11T15:47:59.431Z,11.03
2022-12-11T15:50:33.751Z,14.93
2022-12-11T15:53:00.411Z,14.53
2022-12-11T15:55:29.648Z,10.87
2022-12-11T15:58:09.348Z,10.63
2022-12-11T16:00:36.030Z,10.47
2022-12-11T16:03:02.759Z,10.77
2022-12-11T16:05:29.400Z,10.97
2022-12-11T16:08:00.623Z,12.57
2022-12-11T16:10:29.712Z,10.10
2022-12-11T16:12:59.407Z,11.13
2022-12-11T16:15:29.536Z,11.40
2022-12-11T16:18:08.577Z,11.77
2022-12-11T16:20:43.822Z,11.90
2022-12-11T16:23:14.292Z,10.93
2022-12-11T16:25:42.542Z,14.43
2022-12-11T16:28:10.980Z,11.30
2022-12-11T16:30:40.646Z,11.77
2022-12-11T16:33:12.520Z,12.20
2022-12-11T16:35:41.309Z,10.33
2022-12-11T16:38:10.660Z,11.03
2022-12-11T16:40:37.845Z,11.10
2022-12-11T16:43:05.623Z,10.88
2022-12-11T16:45:35.156Z,9.10
2022-12-11T16:48:04.301Z,11.90
2022-12-11T16:50:33.271Z,10.03
2022-12-11T16:53:00.002Z,9.83
2022-12-11T16:55:28.860Z,10.02
2022-12-11T16:57:55.508Z,10.60
2022-12-11T17:00:24.467Z,9.63
2022-12-11T17:02:53.411Z,9.97
2022-12-11T17:05:22.669Z,10.13
2022-12-11T17:07:52.211Z,9.23
2022-12-11T17:10:21.153Z,10.43
2022-12-11T17:12:50.183Z,9.67
2022-12-11T17:15:19.392Z,10.50
2022-12-11T17:17:48.579Z,11.13
2022-12-11T17:20:18.232Z,9.53
2022-12-11T17:22:45.929Z,10.90
2022-12-11T17:25:19.235Z,10.60
2022-12-11T17:27:45.912Z,10.83
2022-12-11T17:30:14.197Z,11.00
2022-12-11T17:32:41.027Z,11.60
2022-12-11T17:35:08.079Z,11.43
2022-12-11T17:37:37.155Z,12.67
2022-12-11T17:40:05.075Z,12.40
2022-12-11T17:42:31.692Z,12.43
2022-12-11T17:44:58.376Z,12.83
2022-12-11T17:47:27.486Z,12.90
2022-12-11T17:49:56.516Z,13.30
2022-12-11T17:52:29.682Z,13.07
2022-12-11T17:55:03.074Z,15.23
2022-12-11T17:57:32.533Z,14.60
2022-12-11T17:59:59.326Z,15.57
2022-12-11T18:02:28.580Z,15.20
2022-12-11T18:04:55.296Z,14.73
2022-12-11T18:07:22.618Z,16.67
2022-12-11T18:09:49.306Z,15.70
2022-12-11T18:12:16.028Z,14.27
2022-12-11T18:14:44.972Z,15.33
2022-12-11T18:17:14.039Z,15.10
2022-12-11T18:19:46.163Z,15.97
2022-12-11T18:22:13.050Z,15.20
2022-12-11T18:24:39.739Z,13.20
2022-12-11T18:27:10.186Z,14.47
2022-12-11T18:29:42.091Z,13.53
2022-12-11T18:32:13.507Z,13.00
2022-12-11T18:34:40.202Z,12.97
2022-12-11T18:37:11.368Z,13.97
2022-12-11T18:39:40.186Z,14.63
2022-12-11T18:42:32.232Z,14.10
2022-12-11T18:44:56.870Z,15.00
2022-12-11T18:47:23.664Z,13.70
2022-12-11T18:49:50.334Z,12.97
2022-12-11T18:52:17.496Z,13.77
2022-12-11T18:54:44.327Z,15.18
2022-12-11T18:57:11.565Z,12.03
2022-12-11T18:59:40.618Z,14.97
2022-12-11T19:02:07.756Z,13.07
2022-12-11T19:04:39.103Z,12.33
2022-12-11T19:07:08.126Z,10.97
2022-12-11T19:09:38.220Z,14.53
2022-12-11T19:12:05.965Z,12.83
2022-12-11T19:14:32.654Z,12.53
2022-12-11T19:16:59.276Z,17.27
2022-12-11T19:19:28.731Z,13.80
2022-12-11T19:21:57.534Z,13.23
2022-12-11T19:24:26.833Z,13.70
2022-12-11T19:26:53.570Z,12.33
2022-12-11T19:29:25.843Z,11.73
2022-12-11T19:31:52.750Z,12.40
2022-12-11T19:34:21.899Z,13.23
2022-12-11T19:36:51.571Z,11.97
2022-12-11T19:39:20.896Z,12.67
2022-12-11T19:41:47.921Z,11.30
2022-12-11T19:44:14.590Z,14.43
2022-12-11T19:46:41.504Z,13.57
2022-12-11T19:49:08.214Z,16.43
2022-12-11T19:51:40.062Z,17.23
2022-12-11T19:54:08.632Z,17.03
2022-12-11T19:56:38.056Z,16.13
2022-12-11T19:59:08.367Z,16.33
2022-12-11T20:01:39.636Z,19.30
2022-12-11T20:04:10.166Z,19.27
2022-12-11T20:06:38.950Z,20.37
2022-12-11T20:09:12.831Z,21.30
2022-12-11T20:11:44.299Z,19.67
2022-12-11T20:14:20.724Z,21.03
2022-12-11T20:17:09.777Z,23.80
2022-12-11T20:19:34.614Z,20.97
2022-12-11T20:22:01.433Z,20.57
2022-12-11T20:24:30.474Z,20.23
2022-12-11T20:27:00.228Z,20.47
2022-12-11T20:29:27.019Z,20.50
2022-12-11T20:31:53.832Z,22.87
2022-12-11T20:34:20.591Z,22.30
2022-12-11T20:36:48.222Z,21.03
2022-12-11T20:39:15.594Z,22.93
2022-12-11T20:41:42.246Z,24.13
2022-12-11T20:44:09.014Z,22.65
2022-12-11T20:46:35.657Z,23.63
2022-12-11T20:49:02.442Z,20.90
2022-12-11T20:51:29.814Z,23.93
2022-12-11T20:53:59.672Z,21.13
2022-12-11T20:56:29.835Z,22.13
2022-12-11T20:58:57.708Z,22.97
2022-12-11T21:01:26.535Z,21.57
2022-12-11T21:03:55.643Z,23.07
2022-12-11T21:06:28.358Z,24.63
2022-12-11T21:08:55.159Z,24.40
2022-12-11T21:11:22.128Z,25.43
2022-12-11T21:13:49.067Z,27.50
2022-12-11T21:16:15.960Z,26.57
2022-12-11T21:18:44.234Z,25.10
2022-12-11T21:21:11.087Z,27.50
2022-12-11T21:23:37.819Z,24.50
2022-12-11T21:26:04.670Z,23.90
2022-12-11T21:28:35.654Z,25.30
2022-12-11T21:31:05.912Z,27.70
2022-12-11T21:33:32.877Z,25.93
2022-12-11T21:36:00.654Z,23.93
2022-12-11T21:38:28.304Z,24.73
2022-12-11T21:40:55.408Z,25.70
2022-12-11T21:43:23.056Z,25.33
2022-12-11T21:46:01.012Z,23.43
2022-12-11T21:48:30.748Z,23.03
2022-12-11T21:51:12.462Z,25.03
2022-12-11T21:53:44.517Z,25.20
2022-12-11T21:56:14.131Z,25.97
2022-12-11T21:58:42.303Z,23.43
2022-12-11T22:01:35.000Z,23.10
2022-12-11T22:04:06.821Z,24.57
2022-12-11T22:06:34.280Z,24.25
2022-12-11T22:09:01.447Z,22.60
2022-12-11T22:11:31.805Z,22.77
2022-12-11T22:14:01.224Z,20.63
2022-12-11T22:16:30.384Z,22.37
2022-12-11T22:18:57.073Z,20.50
2022-12-11T22:21:26.104Z,23.50
2022-12-11T22:23:52.989Z,22.03
2022-12-11T22:26:23.438Z,23.27
2022-12-11T22:28:50.647Z,19.80
2022-12-11T22:31:20.453Z,20.37
2022-12-11T22:33:49.956Z,22.50
2022-12-11T22:36:19.932Z,20.57
2022-12-11T22:38:47.427Z,19.17
2022-12-11T22:41:25.048Z,20.37
2022-12-11T22:43:52.217Z,18.60
2022-12-11T22:46:23.860Z,18.67
2022-12-11T22:48:51.015Z,18.30
2022-12-11T22:51:20.701Z,19.87
2022-12-11T22:53:49.837Z,18.80
2022-12-11T22:56:23.616Z,19.30
2022-12-11T22:58:50.637Z,21.07
2022-12-11T23:01:23.167Z,18.55
2022-12-11T23:03:52.749Z,16.33
2022-12-11T23:06:24.802Z,18.60
2022-12-11T23:08:52.691Z,19.93
2022-12-11T23:11:24.039Z,16.67
2022-12-11T23:13:53.413Z,19.33
2022-12-11T23:16:26.753Z,16.30
2022-12-11T23:18:55.014Z,16.73
2022-12-11T23:21:22.770Z,16.30
2022-12-11T23:23:52.398Z,15.00
2022-12-11T23:26:24.341Z,15.67
2022-12-11T23:28:53.802Z,16.33
2022-12-11T23:31:23.675Z,14.90
2022-12-11T23:33:50.465Z,15.20
2022-12-11T23:36:19.803Z,15.90
2022-12-11T23:38:52.602Z,15.10
2022-12-11T23:41:21.474Z,15.07
2022-12-11T23:43:48.301Z,14.23
2022-12-11T23:46:18.184Z,13.90
2022-12-11T23:48:48.255Z,15.10
2022-12-11T23:51:19.160Z,15.50
2022-12-11T23:53:50.988Z,15.17
2022-12-11T23:56:27.823Z,15.33
2022-12-11T23:58:55.783Z,14.10
